createdAt,value
2022-09-13T00:17:08.417Z,970.4
2022-09-13T00:47:12.605Z,970.3
2022-09-13T01:17:14.471Z,970.1
2022-09-13T01:47:17.499Z,970.2
2022-09-13T02:17:19.433Z,970.3
2022-09-13T02:47:28.395Z,970.5
2022-09-13T03:17:33.361Z,970.2
2022-09-13T03:47:34.434Z,969.9
2022-09-13T04:17:41.790Z,969.9
2022-09-13T04:47:51.820Z,970.2
2022-09-13T05:17:54.889Z,970.2
2022-09-13T05:48:00.000Z,970.5
2022-09-13T06:18:04.979Z,970.6
2022-09-13T06:48:06.887Z,970.4
2022-09-13T07:18:12.863Z,970.4
2022-09-13T07:48:15.910Z,970.5
2022-09-13T08:18:16.108Z,970
2022-09-13T08:48:25.000Z,969.9
2022-09-13T09:18:28.167Z,969.5
2022-09-13T09:48:29.021Z,969.8
2022-09-13T10:18:35.000Z,969.4
2022-09-13T10:48:49.445Z,969.3
2022-09-13T11:18:51.000Z,968.3
2022-09-13T11:49:02.000Z,969.1
2022-09-13T12:19:12.511Z,968.3
2022-09-13T12:49:14.524Z,968.7
2022-09-13T13:19:24.591Z,967.4
2022-09-13T13:49:29.000Z,967.7
2022-09-13T14:19:30.837Z,967.4
2022-09-13T14:49:34.000Z,967.2
2022-09-13T15:19:35.683Z,966.5
2022-09-13T15:49:35.000Z,966.0
2022-09-13T16:19:37.425Z,966.2
2022-09-13T16:49:47.597Z,966.2
2022-09-13T17:19:47.666Z,965.8
2022-09-13T17:49:48.760Z,965.8
2022-09-13T18:19:57.624Z,966.2
2022-09-13T18:50:02.607Z,966.4
2022-09-13T19:20:05.000Z,966.6
2022-09-13T19:50:16.859Z,966.6
2022-09-13T20:20:25.000Z,966.4
2022-09-13T20:50:27.000Z,966.4
2022-09-13T21:20:32.734Z,966.3
2022-09-13T21:50:34.000Z,966.2
2022-09-13T22:20:39.000Z,966.1
2022-09-13T22:50:44.919Z,965.8
2022-09-13T23:20:45.000Z,965.7
2022-09-13T23:50:46.000Z,965.6
